TRAVEL WEATHER INFO - USA

NOAA Site Locator - Search for Station Information

CITY Forecast Link METAR Identifier Last Updated Temperature Dew Point Humidity Pressure Wind Direction Wind Speed Wind Gust Weather Rain/hr Google Maps
Albuqueque WEATHER KABQ 01/16/2018 18:52 35.6 17.6 47 30.38 WSW 3 3 Few Clouds --- Albuquerque, NM Map
Anchorage WEATHER PAED 01/16/2018 19:24 41.0 33.8 75 29.21 WSW 12 12 Few Clouds --- Anchorage, AK Map
Atlanta WEATHER KATL 01/16/2018 18:52 41.0 30.2 65 30.33 NW 14 14 Overcast --- ATLANTA, GA Map
Birmingham WEATHER KBHM 01/16/2018 18:53 24.8 17.6 74 30.51 NNW 11 11 Overcast --- Birmingham, AL Map
Boston WEATHER KBOS 01/16/2018 18:54 32.0 26.6 80 30.46 SE 4 4 Overcast --- BOSTON, MA Map
Cheyenne WEATHER KCYS 01/16/2018 18:53 23.0 -2.2 32 30.25 SSW 12 12 Clear --- Cheyenne, WY Map
Chicago O'Hare WEATHER KORD 01/16/2018 18:51 19.4 8.6 62 30.50 NW 12 12 Scattered Clouds --- CHICAGO, IL Map
Colorado Springs WEATHER KCOS 01/16/2018 18:54 24.8 1.4 36 30.33 SSE 9 9 Few Clouds --- Colo. Springs, CO Map
Dallas WEATHER KADS 01/16/2018 18:47 24.8 1.4 36 30.70 N 13 18 Clear --- Dallas, TX Map
Denver WEATHER KDEN 01/16/2018 18:53 26.6 3.2 36 30.28 SE 9 9 Few Clouds --- DENVER, CO Map
Detroit WEATHER KDET 01/16/2018 19:39 10.4 6.8 85 30.43 SW 9 9 0.00 Detroit, MI Map
Dover WEATHER KDOV 01/16/2018 19:27 33.8 33.8 100 30.35 NE 3 3 Broken Clouds --- DOVER, DE Map
Fort Lauderdale WEATHER KFXE 01/16/2018 18:53 66.2 51.8 60 30.22 N 3 3 Scattered Clouds --- Fort Lauderdale, FL Map
Honolulu WEATHER PHNL 01/16/2018 18:53 82.4 60.8 48 30.07 ENE 14 14 Few Clouds --- Honolulu, HI Map
JFK Airport WEATHER KJFK 01/16/2018 18:51 35.6 32.0 87 30.42 ENE 5 5 Overcast --- JFK Airport, NYC Map
Key West WEATHER KEYW 01/16/2018 18:53 66.2 60.8 83 30.21 NNE 3 3 Clear --- Key West, FL Map
Los Angeles WEATHER KLAX 01/16/2018 18:53 62.6 53.6 72 30.09 W 9 9 Overcast --- Los Angeles, CA Map
Louisville WEATHER KSDF 01/16/2018 18:56 10.4 -0.4 61 30.59 WNW 11 11 Overcast 0.00 Louisville, KY Map
Minneapolis WEATHER KMSP 01/16/2018 18:53 3.2 -2.2 78 30.61 WSW 4 4 Clear --- Minneapolis, MN Map
Morgantown WEATHER KMGW 01/16/2018 19:21 19.4 15.8 86 30.40 NW 5 5 0.01 Morgantown, WV Map
New Orleans WEATHER KNEW 01/16/2018 18:53 37.4 28.4 70 30.48 N 20 27 Overcast --- New Orleans, LA Map
New York City WEATHER KNYC 01/16/2018 19:11 33.8 28.4 80 30.43 --- 0 0 Overcast 0.00 New York, NY Map
Omaha WEATHER KOMA 01/16/2018 18:52 8.6 1.4 72 30.69 WNW 3 3 Clear --- Omaha, NE Map
Philadelphia WEATHER KPHL 01/16/2018 18:54 37.4 28.4 70 30.38 E 5 5 Overcast --- Philadelphia, PA Map
Pittsburgh WEATHER KPIT 01/16/2018 18:51 15.8 8.6 73 30.39 W 8 8 Overcast 0.00 Pittsburgh, PA Map
Seattle WEATHER KSEA 01/16/2018 18:53 53.6 39.2 58 30.24 SSW 9 9 Overcast --- Seattle, WA Map
San Francisco WEATHER KSFO 01/16/2018 18:56 57.2 53.6 88 30.18 N 4 4 Overcast --- San Francisco, CA Map
Washington DC WEATHER KDCA 01/16/2018 18:52 37.4 24.8 60 30.37 SSE 3 3 Overcast --- Washington, DC Map